createdAt,value
2022-09-02T00:00:41.912Z,18.35
2022-09-02T00:03:08.393Z,18.46
2022-09-02T00:05:34.837Z,18.46
2022-09-02T00:08:01.241Z,18.18
2022-09-02T00:10:30.382Z,18.03
2022-09-02T00:12:56.713Z,17.98
2022-09-02T00:15:23.068Z,18.12
2022-09-02T00:17:49.403Z,18.09
2022-09-02T00:20:18.242Z,17.97
2022-09-02T00:22:44.619Z,17.88
2022-09-02T00:25:11.044Z,17.82
2022-09-02T00:27:37.407Z,17.76
2022-09-02T00:30:03.805Z,17.63
2022-09-02T00:32:30.151Z,17.70
2022-09-02T00:34:56.474Z,17.79
2022-09-02T00:37:23.094Z,17.70
2022-09-02T00:39:49.466Z,17.75
2022-09-02T00:42:15.888Z,17.81
2022-09-02T00:44:45.050Z,17.74
2022-09-02T00:47:11.453Z,17.75
2022-09-02T00:49:37.830Z,17.57
2022-09-02T00:52:04.202Z,17.36
2022-09-02T00:54:30.582Z,17.19
2022-09-02T00:56:56.949Z,17.00
2022-09-02T00:59:26.124Z,17.06
2022-09-02T01:01:52.576Z,16.98
2022-09-02T01:04:18.996Z,16.94
2022-09-02T01:06:45.370Z,16.83
2022-09-02T01:09:11.782Z,17.03
2022-09-02T01:11:38.182Z,16.78
2022-09-02T01:14:04.605Z,16.93
2022-09-02T01:16:31.018Z,17.04
2022-09-02T01:18:57.412Z,16.90
2022-09-02T01:21:23.786Z,17.15
2022-09-02T01:23:50.152Z,16.94
2022-09-02T01:26:17.495Z,16.98
2022-09-02T01:28:43.839Z,16.94
2022-09-02T01:31:10.270Z,17.08
2022-09-02T01:33:36.716Z,17.10
2022-09-02T01:36:03.078Z,17.01
2022-09-02T01:38:29.450Z,16.84
2022-09-02T01:40:55.800Z,16.69
2022-09-02T01:43:22.331Z,16.65
2022-09-02T01:45:48.746Z,16.78
2022-09-02T01:48:16.085Z,16.70
2022-09-02T01:50:47.947Z,16.97
2022-09-02T01:53:14.399Z,16.85
2022-09-02T01:55:40.899Z,16.68
2022-09-02T01:58:07.298Z,16.67
2022-09-02T02:00:33.731Z,16.65
2022-09-02T02:03:00.105Z,16.62
2022-09-02T02:05:26.732Z,16.40
2022-09-02T02:07:53.100Z,16.32
2022-09-02T02:10:19.483Z,16.18
2022-09-02T02:12:45.893Z,16.20
2022-09-02T02:15:12.295Z,16.24
2022-09-02T02:17:38.679Z,16.45
2022-09-02T02:20:05.046Z,16.63
2022-09-02T02:22:31.438Z,16.67
2022-09-02T02:24:57.880Z,16.52
2022-09-02T02:27:24.320Z,16.44
2022-09-02T02:29:50.702Z,16.46
2022-09-02T02:32:20.144Z,16.49
2022-09-02T02:34:46.536Z,16.46
2022-09-02T02:37:12.898Z,16.57
2022-09-02T02:39:39.277Z,16.74
2022-09-02T02:42:05.664Z,16.73
2022-09-02T02:44:32.050Z,16.58
2022-09-02T02:46:58.454Z,16.50
2022-09-02T02:49:24.879Z,16.47
2022-09-02T02:51:51.264Z,16.68
2022-09-02T02:54:17.632Z,16.80
2022-09-02T02:56:44.002Z,16.91
2022-09-02T02:59:10.373Z,16.95
2022-09-02T03:01:36.916Z,16.71
2022-09-02T03:04:03.341Z,16.37
2022-09-02T03:06:29.705Z,16.48
2022-09-02T03:08:56.072Z,16.37
2022-09-02T03:11:22.475Z,16.59
2022-09-02T03:13:48.855Z,16.66
2022-09-02T03:16:15.335Z,16.71
2022-09-02T03:18:41.764Z,16.66
2022-09-02T03:21:08.134Z,16.53
2022-09-02T03:23:38.465Z,16.47
2022-09-02T03:26:04.855Z,16.31
2022-09-02T03:28:31.220Z,16.13
2022-09-02T03:30:57.638Z,16.16
2022-09-02T03:33:24.037Z,15.86
2022-09-02T03:35:50.412Z,16.36
2022-09-02T03:38:16.800Z,16.77
2022-09-02T03:40:43.273Z,17.27
2022-09-02T03:43:09.706Z,17.44
2022-09-02T03:45:36.128Z,17.65
2022-09-02T03:48:05.318Z,17.78
2022-09-02T03:50:34.467Z,17.89
2022-09-02T03:53:00.832Z,17.95
2022-09-02T03:55:29.955Z,18.06
2022-09-02T03:57:57.088Z,18.04
2022-09-02T04:00:26.413Z,18.11
2022-09-02T04:02:52.780Z,18.12
2022-09-02T04:05:19.172Z,18.23
2022-09-02T04:07:47.142Z,18.22
2022-09-02T04:10:13.595Z,18.23
2022-09-02T04:12:39.968Z,18.23
2022-09-02T04:15:06.402Z,18.23
2022-09-02T04:17:32.742Z,18.27
2022-09-02T04:19:59.062Z,18.34
2022-09-02T04:22:28.525Z,18.33
2022-09-02T04:24:54.866Z,18.33
2022-09-02T04:27:24.022Z,18.44
2022-09-02T04:29:50.371Z,18.47
2022-09-02T04:32:16.727Z,18.51
2022-09-02T04:34:43.073Z,18.53
2022-09-02T04:37:09.502Z,18.54
2022-09-02T04:39:35.852Z,18.55
2022-09-02T04:42:02.204Z,18.37
2022-09-02T04:44:28.570Z,18.46
2022-09-02T04:46:54.894Z,18.56
2022-09-02T04:49:21.264Z,18.49
2022-09-02T04:51:47.619Z,18.40
2022-09-02T04:54:13.994Z,18.52
2022-09-02T04:56:40.349Z,18.40
2022-09-02T04:59:06.723Z,18.27
2022-09-02T05:01:33.166Z,18.38
2022-09-02T05:03:59.678Z,18.50
2022-09-02T05:06:26.266Z,18.47
2022-09-02T05:08:52.653Z,18.50
2022-09-02T05:11:19.017Z,18.37
2022-09-02T05:13:45.401Z,18.26
2022-09-02T05:16:11.807Z,18.04
2022-09-02T05:18:38.177Z,18.21
2022-09-02T05:21:04.552Z,18.53
2022-09-02T05:23:30.895Z,18.50
2022-09-02T05:25:57.257Z,18.43
2022-09-02T05:28:23.620Z,18.40
2022-09-02T05:30:50.029Z,18.50
2022-09-02T05:33:16.413Z,18.63
2022-09-02T05:35:45.450Z,18.76
2022-09-02T05:38:12.339Z,18.87
2022-09-02T05:40:38.759Z,18.90
2022-09-02T05:43:05.198Z,18.95
2022-09-02T05:45:31.537Z,19.04
2022-09-02T05:47:57.981Z,18.87
2022-09-02T05:50:24.359Z,18.97
2022-09-02T05:52:50.753Z,19.07
2022-09-02T05:55:17.309Z,19.11
2022-09-02T05:57:43.670Z,19.10
2022-09-02T06:00:10.139Z,19.11
2022-09-02T06:02:36.607Z,19.14
2022-09-02T06:05:02.972Z,19.13
2022-09-02T06:07:29.389Z,19.15
2022-09-02T06:09:55.766Z,19.07
2022-09-02T06:12:22.148Z,19.19
2022-09-02T06:14:48.511Z,19.28
2022-09-02T06:17:14.893Z,19.33
2022-09-02T06:19:41.282Z,19.32
2022-09-02T06:22:08.813Z,19.32
2022-09-02T06:24:37.775Z,19.33
2022-09-02T06:27:04.158Z,19.38
2022-09-02T06:29:30.516Z,19.34
2022-09-02T06:31:56.876Z,19.34
2022-09-02T06:34:23.234Z,19.11
2022-09-02T06:36:49.576Z,19.10
2022-09-02T06:39:16.119Z,19.29
2022-09-02T06:41:42.491Z,19.37
2022-09-02T06:44:08.895Z,19.40
2022-09-02T06:46:35.778Z,19.43
2022-09-02T06:49:02.150Z,19.47
2022-09-02T06:51:28.561Z,19.47
2022-09-02T06:53:54.910Z,19.47
2022-09-02T06:56:21.782Z,19.50
2022-09-02T06:58:48.120Z,19.52
2022-09-02T07:01:14.548Z,19.52
2022-09-02T07:03:40.907Z,19.60
2022-09-02T07:06:07.232Z,19.59
2022-09-02T07:08:33.590Z,19.66
2022-09-02T07:11:02.714Z,19.75
2022-09-02T07:13:29.082Z,19.69
2022-09-02T07:15:55.438Z,19.72
2022-09-02T07:18:21.800Z,19.70
2022-09-02T07:20:50.935Z,19.85
2022-09-02T07:23:17.335Z,19.92
2022-09-02T07:25:43.674Z,19.97
2022-09-02T07:28:10.017Z,19.92
2022-09-02T07:30:39.177Z,19.73
2022-09-02T07:33:05.601Z,19.80
2022-09-02T07:35:34.739Z,19.93
2022-09-02T07:38:03.919Z,19.96
2022-09-02T07:40:33.091Z,20.04
2022-09-02T07:43:02.260Z,20.05
2022-09-02T07:45:31.387Z,20.14
2022-09-02T07:47:57.759Z,20.23
2022-09-02T07:50:24.134Z,20.29
2022-09-02T07:52:50.513Z,20.30
2022-09-02T07:55:16.886Z,20.22
2022-09-02T08:00:09.559Z,19.95
2022-09-02T08:02:35.965Z,19.70
2022-09-02T08:05:05.224Z,19.65
2022-09-02T08:07:34.348Z,19.58
2022-09-02T08:10:03.482Z,19.69
2022-09-02T08:12:32.633Z,19.98
2022-09-02T08:15:01.780Z,20.08
2022-09-02T08:17:30.920Z,20.16
2022-09-02T08:19:57.412Z,20.20
2022-09-02T08:22:26.650Z,20.21
2022-09-02T08:24:53.000Z,20.15
2022-09-02T08:27:22.137Z,20.20
2022-09-02T08:29:51.284Z,20.22
2022-09-02T08:32:17.693Z,20.24
2022-09-02T08:34:44.145Z,20.26
2022-09-02T08:37:13.298Z,20.27
2022-09-02T08:39:39.642Z,20.22
2022-09-02T08:42:05.991Z,20.19
2022-09-02T08:44:32.676Z,20.03
2022-09-02T08:46:59.034Z,20.09
2022-09-02T08:49:25.426Z,20.07
2022-09-02T08:51:53.652Z,20.16
2022-09-02T08:54:20.310Z,20.13
2022-09-02T08:56:46.635Z,20.30
2022-09-02T08:59:13.005Z,20.31
2022-09-02T09:01:39.510Z,20.38
2022-09-02T09:04:05.898Z,20.40
2022-09-02T09:06:32.234Z,20.45
2022-09-02T09:08:58.603Z,20.46
2022-09-02T09:11:27.733Z,20.69
2022-09-02T09:13:54.077Z,21.00
2022-09-02T09:16:20.439Z,20.63
2022-09-02T09:18:46.788Z,20.54
2022-09-02T09:21:18.749Z,20.74
2022-09-02T09:23:45.151Z,20.63
2022-09-02T09:26:11.494Z,20.42
2022-09-02T09:28:37.967Z,21.60
2022-09-02T09:31:04.307Z,21.28
2022-09-02T09:33:30.627Z,21.43
2022-09-02T09:35:59.782Z,21.11
2022-09-02T09:38:26.104Z,21.36
2022-09-02T09:40:52.558Z,21.31
2022-09-02T09:43:21.731Z,20.53
2022-09-02T09:45:48.176Z,20.40
2022-09-02T09:48:14.567Z,20.10
2022-09-02T09:50:40.881Z,20.10
2022-09-02T09:53:07.230Z,20.22
2022-09-02T09:55:34.948Z,20.11
2022-09-02T09:58:04.405Z,19.83
2022-09-02T10:00:30.741Z,20.00
2022-09-02T10:02:59.870Z,20.13
2022-09-02T10:05:29.002Z,20.15
2022-09-02T10:07:55.320Z,20.12
2022-09-02T10:10:25.626Z,20.13
2022-09-02T10:12:51.973Z,20.10
2022-09-02T10:15:18.298Z,20.13
2022-09-02T10:17:44.639Z,20.12
2022-09-02T10:20:10.976Z,20.10
2022-09-02T10:22:39.471Z,20.09
2022-09-02T10:25:23.641Z,19.97
2022-09-02T10:27:50.173Z,19.91
2022-09-02T10:30:16.512Z,20.00
2022-09-02T10:32:42.873Z,20.04
2022-09-02T10:35:09.245Z,20.11
2022-09-02T10:37:35.608Z,19.99
2022-09-02T10:40:01.938Z,20.00
2022-09-02T10:42:28.274Z,20.14
2022-09-02T10:44:58.806Z,20.28
2022-09-02T10:47:30.081Z,20.31
2022-09-02T10:49:58.204Z,20.32
2022-09-02T10:52:24.536Z,20.32
2022-09-02T10:54:50.890Z,20.30
2022-09-02T10:57:17.282Z,20.34
2022-09-02T10:59:43.927Z,20.35
2022-09-02T11:02:10.292Z,20.36
2022-09-02T11:04:36.617Z,20.40
2022-09-02T11:07:03.798Z,20.44
2022-09-02T11:09:30.329Z,20.43
2022-09-02T11:12:00.253Z,20.43
2022-09-02T11:14:26.721Z,20.40
2022-09-02T11:16:56.101Z,20.40
2022-09-02T11:19:22.458Z,20.45
2022-09-02T11:21:50.847Z,20.47
2022-09-02T11:24:17.181Z,20.55
2022-09-02T11:26:46.327Z,20.61
2022-09-02T11:29:12.663Z,20.62
2022-09-02T11:31:41.789Z,20.65
2022-09-02T11:34:08.135Z,20.65
2022-09-02T11:36:34.644Z,20.60
2022-09-02T11:39:00.958Z,20.63
2022-09-02T11:41:37.227Z,20.63
2022-09-02T11:44:04.054Z,20.57
2022-09-02T11:46:30.503Z,20.54
2022-09-02T11:48:56.864Z,20.52
2022-09-02T11:51:23.300Z,20.49
2022-09-02T11:53:49.792Z,20.46
2022-09-02T11:56:21.360Z,20.48
2022-09-02T11:58:47.838Z,20.49
2022-09-02T12:01:14.266Z,20.44
2022-09-02T12:04:15.850Z,20.42
2022-09-02T12:06:30.273Z,20.45
2022-09-02T12:08:56.723Z,20.45
2022-09-02T12:11:25.870Z,20.43
2022-09-02T12:13:52.263Z,20.45
2022-09-02T12:16:19.833Z,20.47
2022-09-02T12:18:46.276Z,20.49
2022-09-02T12:21:15.980Z,20.50
2022-09-02T12:23:45.805Z,20.48
2022-09-02T12:26:15.896Z,20.51
2022-09-02T12:28:42.393Z,20.53
2022-09-02T12:31:08.762Z,20.57
2022-09-02T12:33:38.191Z,20.57
2022-09-02T12:36:04.537Z,20.59
2022-09-02T12:38:33.771Z,20.63
2022-09-02T12:41:00.357Z,20.65
2022-09-02T12:43:26.776Z,20.61
2022-09-02T12:45:54.408Z,20.62
2022-09-02T12:48:30.238Z,20.62
2022-09-02T12:51:04.710Z,20.60
2022-09-02T12:53:31.052Z,20.55
2022-09-02T12:55:57.396Z,20.58
2022-09-02T12:58:23.836Z,20.60
2022-09-02T13:00:50.398Z,20.60
2022-09-02T13:03:16.735Z,20.52
2022-09-02T13:05:43.043Z,20.52
2022-09-02T13:08:09.405Z,20.49
2022-09-02T13:10:35.724Z,20.45
2022-09-02T13:13:02.057Z,20.51
2022-09-02T13:15:28.381Z,20.56
2022-09-02T13:17:54.761Z,20.57
2022-09-02T13:20:21.105Z,20.59
2022-09-02T13:22:47.438Z,20.60
2022-09-02T13:25:13.832Z,20.60
2022-09-02T13:27:40.182Z,20.60
2022-09-02T13:30:06.550Z,20.60
2022-09-02T13:32:32.889Z,20.60
2022-09-02T13:35:02.039Z,20.61
2022-09-02T13:37:31.272Z,20.65
2022-09-02T13:40:00.499Z,20.67
2022-09-02T13:42:26.832Z,20.65
2022-09-02T13:44:58.356Z,20.66
2022-09-02T13:47:24.684Z,20.66
2022-09-02T13:49:53.832Z,20.65
2022-09-02T13:52:24.010Z,20.65
2022-09-02T13:55:00.925Z,20.66
2022-09-02T13:57:27.268Z,20.66
2022-09-02T13:59:56.814Z,20.66
2022-09-02T14:02:23.287Z,20.62
2022-09-02T14:04:49.744Z,20.65
2022-09-02T14:07:16.106Z,20.59
2022-09-02T14:09:42.431Z,20.64
2022-09-02T14:12:08.820Z,20.64
2022-09-02T14:14:35.160Z,20.65
2022-09-02T14:17:04.308Z,20.64
2022-09-02T14:19:30.634Z,20.66
2022-09-02T14:21:56.955Z,20.68
2022-09-02T14:24:23.295Z,20.69
2022-09-02T14:26:49.619Z,20.69
2022-09-02T14:29:15.963Z,20.69
2022-09-02T14:31:42.286Z,20.68
2022-09-02T14:34:08.806Z,20.68
2022-09-02T14:36:35.147Z,20.68
2022-09-02T14:39:01.490Z,20.68
2022-09-02T14:41:27.830Z,20.70
2022-09-02T14:43:54.163Z,20.70
2022-09-02T14:46:20.556Z,20.71
2022-09-02T14:48:46.918Z,20.72
2022-09-02T14:51:13.274Z,20.70
2022-09-02T14:53:39.611Z,20.70
2022-09-02T14:56:07.191Z,20.71
2022-09-02T14:58:33.528Z,20.72
2022-09-02T15:01:02.766Z,20.71
2022-09-02T15:03:29.169Z,20.69
2022-09-02T15:05:55.501Z,20.73
2022-09-02T15:08:21.932Z,20.74
2022-09-02T15:10:51.162Z,20.73
2022-09-02T15:13:17.521Z,20.74
2022-09-02T15:15:43.950Z,20.95
2022-09-02T15:18:12.425Z,21.02
2022-09-02T15:20:38.727Z,21.15
2022-09-02T15:23:05.267Z,21.48
2022-09-02T15:25:31.615Z,22.02
2022-09-02T15:27:58.009Z,21.81
2022-09-02T15:30:27.154Z,21.72
2022-09-02T15:32:53.495Z,21.84
2022-09-02T15:35:19.864Z,21.85
2022-09-02T15:37:46.211Z,21.64
2022-09-02T15:40:12.594Z,21.33
2022-09-02T15:42:38.915Z,21.26
2022-09-02T15:45:05.290Z,21.39
2022-09-02T15:47:31.630Z,21.23
2022-09-02T15:49:57.965Z,21.54
2022-09-02T15:52:24.291Z,21.66
2022-09-02T15:54:53.565Z,21.99
2022-09-02T15:57:19.897Z,21.89
2022-09-02T15:59:49.020Z,21.53
2022-09-02T16:02:15.409Z,21.52
2022-09-02T16:04:44.544Z,21.38
2022-09-02T16:07:10.897Z,21.38
2022-09-02T16:09:43.334Z,21.29
2022-09-02T16:12:09.697Z,21.24
2022-09-02T16:14:38.839Z,21.24
2022-09-02T16:17:05.272Z,21.17
2022-09-02T16:19:31.616Z,21.17
2022-09-02T16:22:00.760Z,21.16
2022-09-02T16:24:29.918Z,21.31
2022-09-02T16:26:56.251Z,21.64
2022-09-02T16:29:22.571Z,21.57
2022-09-02T16:34:38.028Z,21.73
2022-09-02T16:37:04.381Z,21.94
2022-09-02T16:39:30.834Z,22.04
2022-09-02T16:41:57.285Z,21.75
2022-09-02T16:44:23.641Z,21.77
2022-09-02T16:46:49.976Z,21.99
2022-09-02T16:49:16.314Z,21.99
2022-09-02T16:51:42.652Z,22.06
2022-09-02T16:54:08.998Z,22.11
2022-09-02T16:56:43.912Z,22.38
2022-09-02T16:59:10.253Z,22.26
2022-09-02T17:01:36.618Z,22.15
2022-09-02T17:04:03.026Z,22.15
2022-09-02T17:06:32.181Z,22.35
2022-09-02T17:08:58.510Z,22.01
2022-09-02T17:11:24.852Z,22.82
2022-09-02T17:13:51.202Z,22.00
2022-09-02T17:16:17.596Z,21.74
2022-09-02T17:18:44.034Z,21.59
2022-09-02T17:21:13.163Z,21.57
2022-09-02T17:23:39.548Z,21.50
2022-09-02T17:26:05.906Z,21.50
2022-09-02T17:28:32.269Z,21.32
2022-09-02T17:31:01.472Z,21.35
2022-09-02T17:33:30.670Z,21.38
2022-09-02T17:35:57.024Z,21.43
2022-09-02T17:38:27.361Z,21.31
2022-09-02T17:40:56.577Z,21.34
2022-09-02T17:43:25.712Z,21.34
2022-09-02T17:45:52.106Z,21.34
2022-09-02T17:48:37.043Z,21.27
2022-09-02T17:51:05.801Z,21.04
2022-09-02T17:53:32.171Z,20.97
2022-09-02T17:55:58.508Z,20.96
2022-09-02T17:58:24.872Z,20.88
2022-09-02T18:00:51.255Z,21.01
2022-09-02T18:03:22.008Z,20.97
2022-09-02T18:05:48.712Z,21.06
2022-09-02T18:08:16.123Z,20.94
2022-09-02T18:10:42.535Z,20.84
2022-09-02T18:13:08.965Z,20.78
2022-09-02T18:15:38.119Z,20.73
2022-09-02T18:18:04.511Z,20.73
2022-09-02T18:20:30.873Z,20.74
2022-09-02T18:22:57.271Z,20.76
2022-09-02T18:25:23.660Z,20.78
2022-09-02T18:27:52.330Z,20.89
2022-09-02T18:30:19.891Z,20.78
2022-09-02T18:32:46.253Z,20.86
2022-09-02T18:35:12.640Z,20.70
2022-09-02T18:37:39.029Z,20.68
2022-09-02T18:40:05.469Z,20.66
2022-09-02T18:42:31.869Z,20.67
2022-09-02T18:44:58.255Z,20.58
2022-09-02T18:47:24.680Z,20.56
2022-09-02T18:49:51.068Z,20.57
2022-09-02T18:52:17.456Z,20.53
2022-09-02T18:54:43.855Z,20.56
2022-09-02T18:57:10.223Z,20.65
2022-09-02T18:59:36.578Z,20.66
2022-09-02T19:02:03.046Z,20.66
2022-09-02T19:04:29.763Z,20.73
2022-09-02T19:06:56.161Z,20.83
2022-09-02T19:09:22.565Z,20.85
2022-09-02T19:11:48.957Z,20.77
2022-09-02T19:14:15.340Z,20.57
2022-09-02T19:16:42.616Z,20.62
2022-09-02T19:19:09.906Z,20.76
2022-09-02T19:21:36.308Z,20.75
2022-09-02T19:24:02.695Z,20.73
2022-09-02T19:26:29.067Z,20.77
2022-09-02T19:28:55.456Z,20.74
2022-09-02T19:31:21.946Z,20.58
2022-09-02T19:33:48.415Z,20.62
2022-09-02T19:36:14.791Z,20.62
2022-09-02T19:38:41.190Z,20.66
2022-09-02T19:41:07.556Z,20.76
2022-09-02T19:43:33.913Z,20.75
2022-09-02T19:46:00.351Z,20.74
2022-09-02T19:48:26.804Z,20.75
2022-09-02T19:50:53.170Z,20.62
2022-09-02T19:53:20.429Z,20.60
2022-09-02T19:55:46.802Z,20.68
2022-09-02T19:58:13.266Z,20.67
2022-09-02T20:00:39.687Z,20.65
2022-09-02T20:03:06.121Z,21.27
2022-09-02T20:05:32.530Z,21.54
2022-09-02T20:07:58.916Z,21.84
2022-09-02T20:10:28.074Z,21.88
2022-09-02T20:12:56.239Z,21.95
2022-09-02T20:15:22.691Z,22.13
2022-09-02T20:17:49.065Z,21.96
2022-09-02T20:20:16.500Z,22.31
2022-09-02T20:22:42.870Z,22.00
2022-09-02T20:25:09.242Z,22.10
2022-09-02T20:27:36.801Z,22.05
2022-09-02T20:30:04.103Z,21.91
2022-09-02T20:32:31.402Z,21.99
2022-09-02T20:34:58.839Z,21.99
2022-09-02T20:37:25.303Z,22.61
2022-09-02T20:39:52.640Z,23.00
2022-09-02T20:42:19.050Z,23.06
2022-09-02T20:44:45.437Z,22.94
2022-09-02T20:47:12.664Z,22.65
2022-09-02T20:49:39.948Z,22.74
2022-09-02T20:52:08.190Z,22.75
2022-09-02T20:54:34.569Z,22.44
2022-09-02T20:57:00.953Z,23.03
2022-09-02T20:59:27.338Z,23.04
2022-09-02T21:01:53.791Z,22.65
2022-09-02T21:04:20.205Z,22.34
2022-09-02T21:06:46.565Z,22.21
2022-09-02T21:09:12.947Z,22.20
2022-09-02T21:11:39.341Z,22.27
2022-09-02T21:14:05.744Z,22.11
2022-09-02T21:16:32.208Z,21.29
2022-09-02T21:18:58.623Z,20.64
2022-09-02T21:21:25.009Z,20.65
2022-09-02T21:23:52.479Z,20.66
2022-09-02T21:26:18.939Z,20.53
2022-09-02T21:28:49.642Z,20.50
2022-09-02T21:31:16.041Z,20.52
2022-09-02T21:33:42.442Z,20.58
2022-09-02T21:36:09.689Z,20.51
2022-09-02T21:38:36.076Z,20.45
2022-09-02T21:41:02.444Z,20.35
2022-09-02T21:43:28.880Z,20.33
2022-09-02T21:45:55.239Z,20.46
2022-09-02T21:48:21.617Z,20.43
2022-09-02T21:50:48.015Z,20.39
2022-09-02T21:53:16.503Z,20.43
2022-09-02T21:55:42.883Z,20.35
2022-09-02T21:58:09.285Z,20.32
2022-09-02T22:00:35.697Z,20.39
2022-09-02T22:03:02.071Z,20.33
2022-09-02T22:05:28.440Z,20.25
2022-09-02T22:07:54.822Z,20.12
2022-09-02T22:10:21.183Z,20.12
2022-09-02T22:12:52.026Z,20.27
2022-09-02T22:15:18.850Z,20.31
2022-09-02T22:17:45.228Z,20.20
2022-09-02T22:20:11.575Z,20.21
2022-09-02T22:22:37.951Z,20.23
2022-09-02T22:25:05.266Z,20.32
2022-09-02T22:27:31.645Z,20.30
2022-09-02T22:29:58.023Z,20.26
2022-09-02T22:32:24.441Z,20.26
2022-09-02T22:34:50.789Z,20.25
2022-09-02T22:37:18.028Z,20.17
2022-09-02T22:39:44.459Z,20.15
2022-09-02T22:42:10.969Z,20.14
2022-09-02T22:44:37.315Z,20.14
2022-09-02T22:49:30.021Z,20.08
2022-09-02T22:51:56.418Z,20.02
2022-09-02T22:54:22.793Z,20.05
2022-09-02T22:56:49.145Z,19.97
2022-09-02T22:59:15.555Z,19.96
2022-09-02T23:01:42.072Z,19.93
2022-09-02T23:04:08.485Z,19.92
2022-09-02T23:06:34.904Z,19.85
2022-09-02T23:09:01.272Z,19.90
2022-09-02T23:11:27.679Z,20.01
2022-09-02T23:13:54.041Z,20.05
2022-09-02T23:16:21.385Z,20.04
2022-09-02T23:18:47.769Z,19.96
2022-09-02T23:21:14.999Z,19.93
2022-09-02T23:23:41.392Z,19.83
2022-09-02T23:26:07.759Z,19.87
2022-09-02T23:28:34.164Z,19.81
2022-09-02T23:31:00.648Z,19.62
2022-09-02T23:33:27.068Z,19.55
2022-09-02T23:35:53.453Z,19.64
2022-09-02T23:38:20.725Z,19.74
2022-09-02T23:40:47.086Z,19.73
2022-09-02T23:43:13.452Z,19.43
2022-09-02T23:45:39.834Z,19.41
2022-09-02T23:48:06.229Z,19.40
2022-09-02T23:50:32.597Z,19.43
2022-09-02T23:52:58.981Z,19.63
2022-09-02T23:55:25.366Z,19.48
2022-09-02T23:57:51.738Z,19.55
